sensor_id;sensor_type;location;lat;lon;timestamp;temperature;humidity
46356;DHT22;32066;49.474;11.106;2023-07-02T00:01:08;19.10;99.90
46356;DHT22;32066;49.474;11.106;2023-07-02T00:03:40;19.10;99.90
46356;DHT22;32066;49.474;11.106;2023-07-02T00:06:08;19.10;99.90
46356;DHT22;32066;49.474;11.106;2023-07-02T00:08:37;19.10;99.90
46356;DHT22;32066;49.474;11.106;2023-07-02T00:11:06;19.20;99.90
46356;DHT22;32066;49.474;11.106;2023-07-02T00:13:38;19.10;99.90
46356;DHT22;32066;49.474;11.106;2023-07-02T00:16:06;19.10;99.90
46356;DHT22;32066;49.474;11.106;2023-07-02T00:18:35;19.20;99.90
46356;DHT22;32066;49.474;11.106;2023-07-02T00:21:06;19.10;99.90
46356;DHT22;32066;49.474;11.106;2023-07-02T00:23:38;19.10;99.90
46356;DHT22;32066;49.474;11.106;2023-07-02T00:26:07;19.10;99.90
46356;DHT22;32066;49.474;11.106;2023-07-02T00:28:36;19.20;99.90
46356;DHT22;32066;49.474;11.106;2023-07-02T00:31:05;19.00;99.90
46356;DHT22;32066;49.474;11.106;2023-07-02T00:33:34;19.00;99.90
46356;DHT22;32066;49.474;11.106;2023-07-02T00:36:05;18.90;99.90
46356;DHT22;32066;49.474;11.106;2023-07-02T00:38:38;18.80;99.90
46356;DHT22;32066;49.474;11.106;2023-07-02T00:41:07;18.80;99.90
46356;DHT22;32066;49.474;11.106;2023-07-02T00:43:36;18.80;99.90
46356;DHT22;32066;49.474;11.106;2023-07-02T00:46:09;18.70;99.90
46356;DHT22;32066;49.474;11.106;2023-07-02T00:48:41;18.70;99.90
46356;DHT22;32066;49.474;11.106;2023-07-02T00:51:13;18.60;99.90
46356;DHT22;32066;49.474;11.106;2023-07-02T00:53:44;18.60;99.90
46356;DHT22;32066;49.474;11.106;2023-07-02T00:56:13;18.70;99.90
46356;DHT22;32066;49.474;11.106;2023-07-02T00:58:43;18.80;99.90
46356;DHT22;32066;49.474;11.106;2023-07-02T01:01:14;18.70;99.90
46356;DHT22;32066;49.474;11.106;2023-07-02T01:03:51;18.70;99.90
46356;DHT22;32066;49.474;11.106;2023-07-02T01:06:27;18.80;99.90
46356;DHT22;32066;49.474;11.106;2023-07-02T01:08:58;18.80;99.90
46356;DHT22;32066;49.474;11.106;2023-07-02T01:11:30;18.80;99.90
46356;DHT22;32066;49.474;11.106;2023-07-02T01:14:02;18.80;99.90
46356;DHT22;32066;49.474;11.106;2023-07-02T01:16:31;18.80;99.90
46356;DHT22;32066;49.474;11.106;2023-07-02T01:19:04;18.80;99.90
46356;DHT22;32066;49.474;11.106;2023-07-02T01:21:36;18.80;99.90
46356;DHT22;32066;49.474;11.106;2023-07-02T01:24:05;18.80;99.90
46356;DHT22;32066;49.474;11.106;2023-07-02T01:26:44;18.80;99.90
46356;DHT22;32066;49.474;11.106;2023-07-02T01:29:14;18.80;99.90
46356;DHT22;32066;49.474;11.106;2023-07-02T01:31:43;18.80;99.90
46356;DHT22;32066;49.474;11.106;2023-07-02T01:34:12;18.80;99.90
46356;DHT22;32066;49.474;11.106;2023-07-02T01:36:43;18.80;99.90
46356;DHT22;32066;49.474;11.106;2023-07-02T01:39:12;18.70;99.90
46356;DHT22;32066;49.474;11.106;2023-07-02T01:41:44;18.60;99.90
46356;DHT22;32066;49.474;11.106;2023-07-02T01:44:12;18.60;99.90
46356;DHT22;32066;49.474;11.106;2023-07-02T01:46:41;18.70;99.90
46356;DHT22;32066;49.474;11.106;2023-07-02T01:49:11;18.80;99.90
46356;DHT22;32066;49.474;11.106;2023-07-02T01:51:42;18.80;99.90
46356;DHT22;32066;49.474;11.106;2023-07-02T01:54:12;18.90;99.90
46356;DHT22;32066;49.474;11.106;2023-07-02T01:56:41;18.80;99.90
46356;DHT22;32066;49.474;11.106;2023-07-02T01:59:10;18.80;99.90
46356;DHT22;32066;49.474;11.106;2023-07-02T02:01:39;18.80;99.90
46356;DHT22;32066;49.474;11.106;2023-07-02T02:04:09;18.80;99.90
46356;DHT22;32066;49.474;11.106;2023-07-02T02:06:38;18.80;99.90
46356;DHT22;32066;49.474;11.106;2023-07-02T02:09:10;18.80;99.90
46356;DHT22;32066;49.474;11.106;2023-07-02T02:11:41;18.80;99.90
46356;DHT22;32066;49.474;11.106;2023-07-02T02:14:10;18.80;99.90
46356;DHT22;32066;49.474;11.106;2023-07-02T02:16:39;18.70;99.90
46356;DHT22;32066;49.474;11.106;2023-07-02T02:19:11;18.60;99.90
46356;DHT22;32066;49.474;11.106;2023-07-02T02:21:40;18.60;99.90
46356;DHT22;32066;49.474;11.106;2023-07-02T02:24:11;18.60;99.90
46356;DHT22;32066;49.474;11.106;2023-07-02T02:26:40;18.60;99.90
46356;DHT22;32066;49.474;11.106;2023-07-02T02:29:08;18.50;99.90
46356;DHT22;32066;49.474;11.106;2023-07-02T02:31:37;18.50;99.90
46356;DHT22;32066;49.474;11.106;2023-07-02T02:34:06;18.50;99.90
46356;DHT22;32066;49.474;11.106;2023-07-02T02:36:34;18.40;99.90
46356;DHT22;32066;49.474;11.106;2023-07-02T02:39:03;18.40;99.90
46356;DHT22;32066;49.474;11.106;2023-07-02T02:41:34;18.30;99.90
46356;DHT22;32066;49.474;11.106;2023-07-02T02:44:03;18.30;99.90
46356;DHT22;32066;49.474;11.106;2023-07-02T02:46:32;18.20;99.90
46356;DHT22;32066;49.474;11.106;2023-07-02T02:49:01;18.20;99.90
46356;DHT22;32066;49.474;11.106;2023-07-02T02:51:30;18.20;99.90
46356;DHT22;32066;49.474;11.106;2023-07-02T02:53:59;18.10;99.90
46356;DHT22;32066;49.474;11.106;2023-07-02T02:56:27;18.10;99.90
46356;DHT22;32066;49.474;11.106;2023-07-02T02:58:58;18.10;99.90
46356;DHT22;32066;49.474;11.106;2023-07-02T03:01:28;18.10;99.90
46356;DHT22;32066;49.474;11.106;2023-07-02T03:03:58;18.10;99.90
46356;DHT22;32066;49.474;11.106;2023-07-02T03:06:27;18.10;99.90
46356;DHT22;32066;49.474;11.106;2023-07-02T03:08:56;18.00;99.90
46356;DHT22;32066;49.474;11.106;2023-07-02T03:11:24;18.00;99.90
46356;DHT22;32066;49.474;11.106;2023-07-02T03:13:53;18.00;99.90
46356;DHT22;32066;49.474;11.106;2023-07-02T03:16:24;17.90;99.90
46356;DHT22;32066;49.474;11.106;2023-07-02T03:18:53;17.90;99.90
46356;DHT22;32066;49.474;11.106;2023-07-02T03:21:21;17.90;99.90
46356;DHT22;32066;49.474;11.106;2023-07-02T03:23:50;17.80;99.90
46356;DHT22;32066;49.474;11.106;2023-07-02T03:26:18;17.80;99.90
46356;DHT22;32066;49.474;11.106;2023-07-02T03:28:48;17.80;99.90
46356;DHT22;32066;49.474;11.106;2023-07-02T03:31:17;17.80;99.70
46356;DHT22;32066;49.474;11.106;2023-07-02T03:33:48;17.80;99.80
46356;DHT22;32066;49.474;11.106;2023-07-02T03:36:17;17.80;99.60
46356;DHT22;32066;49.474;11.106;2023-07-02T03:38:46;17.80;99.70
46356;DHT22;32066;49.474;11.106;2023-07-02T03:41:14;17.80;99.50
46356;DHT22;32066;49.474;11.106;2023-07-02T03:43:43;17.90;99.40
46356;DHT22;32066;49.474;11.106;2023-07-02T03:46:13;17.90;99.30
46356;DHT22;32066;49.474;11.106;2023-07-02T03:48:41;17.80;99.50
46356;DHT22;32066;49.474;11.106;2023-07-02T03:51:13;17.80;99.60
46356;DHT22;32066;49.474;11.106;2023-07-02T03:53:42;17.80;99.60
46356;DHT22;32066;49.474;11.106;2023-07-02T03:56:11;17.80;99.70
46356;DHT22;32066;49.474;11.106;2023-07-02T03:58:40;17.70;99.80
46356;DHT22;32066;49.474;11.106;2023-07-02T04:01:08;17.80;99.80
46356;DHT22;32066;49.474;11.106;2023-07-02T04:03:37;17.80;99.80
46356;DHT22;32066;49.474;11.106;2023-07-02T04:06:06;17.70;99.90
46356;DHT22;32066;49.474;11.106;2023-07-02T04:08:37;17.70;99.90
46356;DHT22;32066;49.474;11.106;2023-07-02T04:11:06;17.80;99.60
46356;DHT22;32066;49.474;11.106;2023-07-02T04:13:34;17.60;99.90
46356;DHT22;32066;49.474;11.106;2023-07-02T04:16:03;17.60;99.80
46356;DHT22;32066;49.474;11.106;2023-07-02T04:18:32;17.70;99.60
46356;DHT22;32066;49.474;11.106;2023-07-02T04:21:01;17.60;99.60
46356;DHT22;32066;49.474;11.106;2023-07-02T04:23:30;17.60;99.70
46356;DHT22;32066;49.474;11.106;2023-07-02T04:26:01;17.60;99.40
46356;DHT22;32066;49.474;11.106;2023-07-02T04:28:29;17.70;99.40
46356;DHT22;32066;49.474;11.106;2023-07-02T04:30:58;17.80;99.10
46356;DHT22;32066;49.474;11.106;2023-07-02T04:33:27;17.90;99.00
46356;DHT22;32066;49.474;11.106;2023-07-02T04:36:01;17.90;98.60
46356;DHT22;32066;49.474;11.106;2023-07-02T04:38:30;17.70;98.50
46356;DHT22;32066;49.474;11.106;2023-07-02T04:41:01;17.70;98.30
46356;DHT22;32066;49.474;11.106;2023-07-02T04:43:30;17.80;98.20
46356;DHT22;32066;49.474;11.106;2023-07-02T04:46:00;17.80;97.80
46356;DHT22;32066;49.474;11.106;2023-07-02T04:48:29;17.80;97.70
46356;DHT22;32066;49.474;11.106;2023-07-02T04:50:57;17.80;97.50
46356;DHT22;32066;49.474;11.106;2023-07-02T04:53:26;17.70;97.00
46356;DHT22;32066;49.474;11.106;2023-07-02T04:55:54;17.80;96.80
46356;DHT22;32066;49.474;11.106;2023-07-02T04:58:27;17.70;97.10
46356;DHT22;32066;49.474;11.106;2023-07-02T05:00:55;17.70;96.90
46356;DHT22;32066;49.474;11.106;2023-07-02T05:03:25;17.80;96.90
46356;DHT22;32066;49.474;11.106;2023-07-02T05:05:55;17.80;96.90
46356;DHT22;32066;49.474;11.106;2023-07-02T05:08:23;17.90;97.00
46356;DHT22;32066;49.474;11.106;2023-07-02T05:10:52;17.90;96.80
46356;DHT22;32066;49.474;11.106;2023-07-02T05:13:20;17.90;96.70
46356;DHT22;32066;49.474;11.106;2023-07-02T05:15:51;18.00;96.80
46356;DHT22;32066;49.474;11.106;2023-07-02T05:18:20;17.90;96.60
46356;DHT22;32066;49.474;11.106;2023-07-02T05:20:49;18.00;96.60
46356;DHT22;32066;49.474;11.106;2023-07-02T05:23:17;18.00;96.60
46356;DHT22;32066;49.474;11.106;2023-07-02T05:25:46;18.00;96.50
46356;DHT22;32066;49.474;11.106;2023-07-02T05:28:15;18.00;96.40
46356;DHT22;32066;49.474;11.106;2023-07-02T05:30:43;18.00;96.40
46356;DHT22;32066;49.474;11.106;2023-07-02T05:33:15;18.00;96.30
46356;DHT22;32066;49.474;11.106;2023-07-02T05:35:43;18.10;96.40
46356;DHT22;32066;49.474;11.106;2023-07-02T05:38:12;18.10;96.10
46356;DHT22;32066;49.474;11.106;2023-07-02T05:40:41;18.20;96.00
46356;DHT22;32066;49.474;11.106;2023-07-02T05:43:09;18.20;95.80
46356;DHT22;32066;49.474;11.106;2023-07-02T05:45:38;18.30;95.30
46356;DHT22;32066;49.474;11.106;2023-07-02T05:48:07;18.20;95.50
46356;DHT22;32066;49.474;11.106;2023-07-02T05:50:38;18.10;95.60
46356;DHT22;32066;49.474;11.106;2023-07-02T05:53:07;18.10;95.80
46356;DHT22;32066;49.474;11.106;2023-07-02T05:55:37;18.00;96.00
46356;DHT22;32066;49.474;11.106;2023-07-02T05:58:07;18.10;96.30
46356;DHT22;32066;49.474;11.106;2023-07-02T06:00:36;17.90;96.80
46356;DHT22;32066;49.474;11.106;2023-07-02T06:03:07;17.90;96.90
46356;DHT22;32066;49.474;11.106;2023-07-02T06:05:38;17.90;96.90
46356;DHT22;32066;49.474;11.106;2023-07-02T06:08:06;17.80;96.80
46356;DHT22;32066;49.474;11.106;2023-07-02T06:10:35;17.60;97.10
46356;DHT22;32066;49.474;11.106;2023-07-02T06:13:04;17.80;97.20
46356;DHT22;32066;49.474;11.106;2023-07-02T06:15:32;17.90;96.70
46356;DHT22;32066;49.474;11.106;2023-07-02T06:18:01;18.00;96.50
46356;DHT22;32066;49.474;11.106;2023-07-02T06:20:30;18.00;96.50
46356;DHT22;32066;49.474;11.106;2023-07-02T06:23:01;18.20;95.80
46356;DHT22;32066;49.474;11.106;2023-07-02T06:25:30;18.30;94.40
46356;DHT22;32066;49.474;11.106;2023-07-02T06:27:59;18.40;93.50
46356;DHT22;32066;49.474;11.106;2023-07-02T06:30:28;18.40;92.80
46356;DHT22;32066;49.474;11.106;2023-07-02T06:32:56;18.40;92.10
46356;DHT22;32066;49.474;11.106;2023-07-02T06:35:25;18.30;92.10
46356;DHT22;32066;49.474;11.106;2023-07-02T06:37:53;18.40;92.00
46356;DHT22;32066;49.474;11.106;2023-07-02T06:40:25;18.50;92.10
46356;DHT22;32066;49.474;11.106;2023-07-02T06:42:53;18.50;91.90
46356;DHT22;32066;49.474;11.106;2023-07-02T06:45:22;18.40;92.20
46356;DHT22;32066;49.474;11.106;2023-07-02T06:47:51;18.40;92.40
46356;DHT22;32066;49.474;11.106;2023-07-02T06:50:19;18.40;91.60
46356;DHT22;32066;49.474;11.106;2023-07-02T06:52:48;18.40;91.40
46356;DHT22;32066;49.474;11.106;2023-07-02T06:55:17;18.40;90.80
46356;DHT22;32066;49.474;11.106;2023-07-02T06:57:48;18.50;91.00
46356;DHT22;32066;49.474;11.106;2023-07-02T07:00:17;18.60;90.90
46356;DHT22;32066;49.474;11.106;2023-07-02T07:02:45;18.60;90.60
46356;DHT22;32066;49.474;11.106;2023-07-02T07:05:14;18.60;90.20
46356;DHT22;32066;49.474;11.106;2023-07-02T07:07:43;18.60;89.40
46356;DHT22;32066;49.474;11.106;2023-07-02T07:10:12;18.70;89.10
46356;DHT22;32066;49.474;11.106;2023-07-02T07:12:40;18.80;88.20
46356;DHT22;32066;49.474;11.106;2023-07-02T07:15:11;18.80;87.80
46356;DHT22;32066;49.474;11.106;2023-07-02T07:17:40;18.70;87.70
46356;DHT22;32066;49.474;11.106;2023-07-02T07:20:10;18.70;86.90
46356;DHT22;32066;49.474;11.106;2023-07-02T07:22:39;18.60;87.00
46356;DHT22;32066;49.474;11.106;2023-07-02T07:25:08;18.60;87.40
46356;DHT22;32066;49.474;11.106;2023-07-02T07:27:37;18.60;88.00
46356;DHT22;32066;49.474;11.106;2023-07-02T07:30:07;18.70;88.10
46356;DHT22;32066;49.474;11.106;2023-07-02T07:32:38;18.60;88.30
46356;DHT22;32066;49.474;11.106;2023-07-02T07:35:07;18.70;88.70
46356;DHT22;32066;49.474;11.106;2023-07-02T07:37:36;18.70;88.80
46356;DHT22;32066;49.474;11.106;2023-07-02T07:40:06;18.80;88.50
46356;DHT22;32066;49.474;11.106;2023-07-02T07:42:35;18.70;88.20
46356;DHT22;32066;49.474;11.106;2023-07-02T07:45:04;18.80;88.30
46356;DHT22;32066;49.474;11.106;2023-07-02T07:47:33;18.80;88.30
46356;DHT22;32066;49.474;11.106;2023-07-02T07:50:06;18.90;88.60
46356;DHT22;32066;49.474;11.106;2023-07-02T07:52:37;18.90;87.50
46356;DHT22;32066;49.474;11.106;2023-07-02T07:55:06;19.00;87.60
46356;DHT22;32066;49.474;11.106;2023-07-02T07:57:36;19.10;86.40
46356;DHT22;32066;49.474;11.106;2023-07-02T08:00:06;19.20;85.10
46356;DHT22;32066;49.474;11.106;2023-07-02T08:02:53;19.20;84.10
46356;DHT22;32066;49.474;11.106;2023-07-02T08:05:25;19.30;83.40
46356;DHT22;32066;49.474;11.106;2023-07-02T08:07:53;19.30;84.10
46356;DHT22;32066;49.474;11.106;2023-07-02T08:10:22;19.20;83.20
46356;DHT22;32066;49.474;11.106;2023-07-02T08:12:53;19.10;82.80
46356;DHT22;32066;49.474;11.106;2023-07-02T08:15:22;19.20;83.20
46356;DHT22;32066;49.474;11.106;2023-07-02T08:17:51;19.30;83.60
46356;DHT22;32066;49.474;11.106;2023-07-02T08:20:25;19.40;81.90
46356;DHT22;32066;49.474;11.106;2023-07-02T08:22:54;19.20;83.10
46356;DHT22;32066;49.474;11.106;2023-07-02T08:25:22;19.30;84.00
46356;DHT22;32066;49.474;11.106;2023-07-02T08:27:52;19.30;83.40
46356;DHT22;32066;49.474;11.106;2023-07-02T08:30:21;19.40;83.70
46356;DHT22;32066;49.474;11.106;2023-07-02T08:32:50;19.40;83.90
46356;DHT22;32066;49.474;11.106;2023-07-02T08:35:19;19.50;84.50
46356;DHT22;32066;49.474;11.106;2023-07-02T08:37:51;19.50;84.10
46356;DHT22;32066;49.474;11.106;2023-07-02T08:40:19;19.60;84.60
46356;DHT22;32066;49.474;11.106;2023-07-02T08:42:48;19.50;84.50
46356;DHT22;32066;49.474;11.106;2023-07-02T08:45:17;19.40;83.90
46356;DHT22;32066;49.474;11.106;2023-07-02T08:47:46;19.40;83.40
46356;DHT22;32066;49.474;11.106;2023-07-02T08:50:16;19.50;84.30
46356;DHT22;32066;49.474;11.106;2023-07-02T08:52:45;19.70;81.90
46356;DHT22;32066;49.474;11.106;2023-07-02T08:55:16;19.80;82.10
46356;DHT22;32066;49.474;11.106;2023-07-02T08:58:07;19.90;81.90
46356;DHT22;32066;49.474;11.106;2023-07-02T09:00:36;20.00;82.10
46356;DHT22;32066;49.474;11.106;2023-07-02T09:03:13;20.00;81.60
46356;DHT22;32066;49.474;11.106;2023-07-02T09:05:50;19.90;82.40
46356;DHT22;32066;49.474;11.106;2023-07-02T09:08:25;19.90;81.40
46356;DHT22;32066;49.474;11.106;2023-07-02T09:11:05;20.10;81.20
46356;DHT22;32066;49.474;11.106;2023-07-02T09:13:44;20.10;80.00
46356;DHT22;32066;49.474;11.106;2023-07-02T09:16:24;20.20;78.90
46356;DHT22;32066;49.474;11.106;2023-07-02T09:18:57;20.30;80.30
46356;DHT22;32066;49.474;11.106;2023-07-02T09:21:27;20.40;79.10
46356;DHT22;32066;49.474;11.106;2023-07-02T09:23:56;20.40;79.30
46356;DHT22;32066;49.474;11.106;2023-07-02T09:26:28;20.50;78.00
46356;DHT22;32066;49.474;11.106;2023-07-02T09:29:00;20.50;78.70
46356;DHT22;32066;49.474;11.106;2023-07-02T09:31:30;20.60;79.40
46356;DHT22;32066;49.474;11.106;2023-07-02T09:34:01;20.50;79.80
46356;DHT22;32066;49.474;11.106;2023-07-02T09:36:30;20.40;79.00
46356;DHT22;32066;49.474;11.106;2023-07-02T09:38:59;20.60;78.40
46356;DHT22;32066;49.474;11.106;2023-07-02T09:41:30;20.70;77.40
46356;DHT22;32066;49.474;11.106;2023-07-02T09:44:00;20.90;77.60
46356;DHT22;32066;49.474;11.106;2023-07-02T09:46:31;20.90;78.40
46356;DHT22;32066;49.474;11.106;2023-07-02T09:49:00;20.80;78.40
46356;DHT22;32066;49.474;11.106;2023-07-02T09:51:29;20.90;78.70
46356;DHT22;32066;49.474;11.106;2023-07-02T09:53:57;20.80;77.80
46356;DHT22;32066;49.474;11.106;2023-07-02T09:56:26;21.00;77.50
46356;DHT22;32066;49.474;11.106;2023-07-02T09:58:57;21.20;76.70
46356;DHT22;32066;49.474;11.106;2023-07-02T10:01:26;21.30;76.30
46356;DHT22;32066;49.474;11.106;2023-07-02T10:03:54;21.30;74.90
46356;DHT22;32066;49.474;11.106;2023-07-02T10:06:26;21.40;74.50
46356;DHT22;32066;49.474;11.106;2023-07-02T10:08:55;21.40;74.70
46356;DHT22;32066;49.474;11.106;2023-07-02T10:11:33;21.40;74.20
46356;DHT22;32066;49.474;11.106;2023-07-02T10:14:05;21.30;75.30
46356;DHT22;32066;49.474;11.106;2023-07-02T10:16:34;21.50;75.90
46356;DHT22;32066;49.474;11.106;2023-07-02T10:19:08;21.60;75.00
46356;DHT22;32066;49.474;11.106;2023-07-02T10:21:38;21.50;74.00
46356;DHT22;32066;49.474;11.106;2023-07-02T10:24:12;21.30;74.50
46356;DHT22;32066;49.474;11.106;2023-07-02T10:26:51;21.30;74.10
46356;DHT22;32066;49.474;11.106;2023-07-02T10:29:24;21.30;73.80
46356;DHT22;32066;49.474;11.106;2023-07-02T10:31:53;21.40;74.90
46356;DHT22;32066;49.474;11.106;2023-07-02T10:34:29;21.60;74.60
46356;DHT22;32066;49.474;11.106;2023-07-02T10:36:59;21.60;74.40
46356;DHT22;32066;49.474;11.106;2023-07-02T10:39:28;21.50;75.30
46356;DHT22;32066;49.474;11.106;2023-07-02T10:42:04;21.30;75.60
46356;DHT22;32066;49.474;11.106;2023-07-02T10:44:47;21.20;75.60
46356;DHT22;32066;49.474;11.106;2023-07-02T10:47:16;21.20;75.10
46356;DHT22;32066;49.474;11.106;2023-07-02T10:49:45;21.30;75.00
46356;DHT22;32066;49.474;11.106;2023-07-02T10:52:14;21.30;72.80
46356;DHT22;32066;49.474;11.106;2023-07-02T10:54:44;21.40;73.10
46356;DHT22;32066;49.474;11.106;2023-07-02T10:57:14;21.40;71.90
46356;DHT22;32066;49.474;11.106;2023-07-02T10:59:48;21.40;72.70
46356;DHT22;32066;49.474;11.106;2023-07-02T11:02:17;21.50;72.70
46356;DHT22;32066;49.474;11.106;2023-07-02T11:04:46;21.50;72.50
46356;DHT22;32066;49.474;11.106;2023-07-02T11:07:15;21.50;72.00
46356;DHT22;32066;49.474;11.106;2023-07-02T11:09:50;21.50;72.40
46356;DHT22;32066;49.474;11.106;2023-07-02T11:12:27;21.60;71.90
46356;DHT22;32066;49.474;11.106;2023-07-02T11:15:07;21.60;73.00
46356;DHT22;32066;49.474;11.106;2023-07-02T11:17:36;21.70;72.80
46356;DHT22;32066;49.474;11.106;2023-07-02T11:20:07;21.70;71.90
46356;DHT22;32066;49.474;11.106;2023-07-02T11:22:37;21.70;69.60
46356;DHT22;32066;49.474;11.106;2023-07-02T11:25:11;21.70;70.60
46356;DHT22;32066;49.474;11.106;2023-07-02T11:27:40;21.80;70.00
46356;DHT22;32066;49.474;11.106;2023-07-02T11:30:12;21.80;69.70
46356;DHT22;32066;49.474;11.106;2023-07-02T11:32:48;21.90;69.80
46356;DHT22;32066;49.474;11.106;2023-07-02T11:35:22;21.90;69.10
46356;DHT22;32066;49.474;11.106;2023-07-02T11:37:50;21.90;68.80
46356;DHT22;32066;49.474;11.106;2023-07-02T11:40:19;21.90;68.70
46356;DHT22;32066;49.474;11.106;2023-07-02T11:42:48;21.90;68.50
46356;DHT22;32066;49.474;11.106;2023-07-02T11:45:19;21.90;66.60
46356;DHT22;32066;49.474;11.106;2023-07-02T11:47:48;21.90;66.10
46356;DHT22;32066;49.474;11.106;2023-07-02T11:50:17;22.10;66.90
46356;DHT22;32066;49.474;11.106;2023-07-02T11:52:45;22.10;63.80
46356;DHT22;32066;49.474;11.106;2023-07-02T11:55:14;22.10;64.20
46356;DHT22;32066;49.474;11.106;2023-07-02T11:57:42;22.30;63.90
46356;DHT22;32066;49.474;11.106;2023-07-02T12:00:12;22.50;62.40
46356;DHT22;32066;49.474;11.106;2023-07-02T12:02:45;22.50;60.80
46356;DHT22;32066;49.474;11.106;2023-07-02T12:05:13;22.60;62.00
46356;DHT22;32066;49.474;11.106;2023-07-02T12:07:42;22.70;61.60
46356;DHT22;32066;49.474;11.106;2023-07-02T12:10:10;22.90;60.90
46356;DHT22;32066;49.474;11.106;2023-07-02T12:12:39;23.00;60.70
46356;DHT22;32066;49.474;11.106;2023-07-02T12:15:09;23.20;60.80
46356;DHT22;32066;49.474;11.106;2023-07-02T12:17:37;23.20;60.80
46356;DHT22;32066;49.474;11.106;2023-07-02T12:20:10;23.40;60.40
46356;DHT22;32066;49.474;11.106;2023-07-02T12:22:38;23.40;60.80
46356;DHT22;32066;49.474;11.106;2023-07-02T12:25:08;23.40;61.10
46356;DHT22;32066;49.474;11.106;2023-07-02T12:27:36;23.50;61.20
46356;DHT22;32066;49.474;11.106;2023-07-02T12:30:06;23.20;59.60
46356;DHT22;32066;49.474;11.106;2023-07-02T12:32:37;23.00;61.40
46356;DHT22;32066;49.474;11.106;2023-07-02T12:35:09;23.30;60.50
46356;DHT22;32066;49.474;11.106;2023-07-02T12:37:43;23.40;61.20
46356;DHT22;32066;49.474;11.106;2023-07-02T12:40:13;23.40;61.20
46356;DHT22;32066;49.474;11.106;2023-07-02T12:42:42;23.30;59.90
46356;DHT22;32066;49.474;11.106;2023-07-02T12:45:11;23.60;59.20
46356;DHT22;32066;49.474;11.106;2023-07-02T12:47:41;23.80;58.40
46356;DHT22;32066;49.474;11.106;2023-07-02T12:50:13;23.90;58.70
46356;DHT22;32066;49.474;11.106;2023-07-02T12:52:42;23.90;58.10
46356;DHT22;32066;49.474;11.106;2023-07-02T12:55:10;23.70;58.50
46356;DHT22;32066;49.474;11.106;2023-07-02T12:57:39;23.50;58.00
46356;DHT22;32066;49.474;11.106;2023-07-02T13:00:09;23.40;58.10
46356;DHT22;32066;49.474;11.106;2023-07-02T13:02:38;23.30;58.50
46356;DHT22;32066;49.474;11.106;2023-07-02T13:05:06;23.30;58.30
46356;DHT22;32066;49.474;11.106;2023-07-02T13:07:38;23.20;58.70
46356;DHT22;32066;49.474;11.106;2023-07-02T13:10:07;23.40;58.80
46356;DHT22;32066;49.474;11.106;2023-07-02T13:12:36;23.70;58.90
46356;DHT22;32066;49.474;11.106;2023-07-02T13:15:05;23.80;57.20
46356;DHT22;32066;49.474;11.106;2023-07-02T13:17:34;23.50;58.50
46356;DHT22;32066;49.474;11.106;2023-07-02T13:20:03;23.70;58.20
46356;DHT22;32066;49.474;11.106;2023-07-02T13:22:32;23.80;57.70
46356;DHT22;32066;49.474;11.106;2023-07-02T13:25:04;24.10;57.50
46356;DHT22;32066;49.474;11.106;2023-07-02T13:27:33;24.10;57.60
46356;DHT22;32066;49.474;11.106;2023-07-02T13:30:02;23.80;57.30
46356;DHT22;32066;49.474;11.106;2023-07-02T13:32:30;23.60;57.70
46356;DHT22;32066;49.474;11.106;2023-07-02T13:34:59;23.40;57.70
46356;DHT22;32066;49.474;11.106;2023-07-02T13:37:28;23.30;58.30
46356;DHT22;32066;49.474;11.106;2023-07-02T13:39:56;23.30;57.90
46356;DHT22;32066;49.474;11.106;2023-07-02T13:42:28;23.30;57.80
46356;DHT22;32066;49.474;11.106;2023-07-02T13:44:56;23.60;58.00
46356;DHT22;32066;49.474;11.106;2023-07-02T13:47:25;23.60;58.40
46356;DHT22;32066;49.474;11.106;2023-07-02T13:49:54;23.20;59.20
46356;DHT22;32066;49.474;11.106;2023-07-02T13:52:22;23.30;58.70
46356;DHT22;32066;49.474;11.106;2023-07-02T13:54:51;23.50;58.00
46356;DHT22;32066;49.474;11.106;2023-07-02T13:57:20;23.50;58.70
46356;DHT22;32066;49.474;11.106;2023-07-02T13:59:51;23.50;58.30
46356;DHT22;32066;49.474;11.106;2023-07-02T14:02:20;23.40;58.60
46356;DHT22;32066;49.474;11.106;2023-07-02T14:04:49;23.40;58.70
46356;DHT22;32066;49.474;11.106;2023-07-02T14:07:18;23.70;59.20
46356;DHT22;32066;49.474;11.106;2023-07-02T14:09:46;24.00;58.00
46356;DHT22;32066;49.474;11.106;2023-07-02T14:12:15;24.00;58.50
46356;DHT22;32066;49.474;11.106;2023-07-02T14:14:44;23.80;58.70
46356;DHT22;32066;49.474;11.106;2023-07-02T14:17:15;23.60;57.90
46356;DHT22;32066;49.474;11.106;2023-07-02T14:19:44;23.60;58.50
46356;DHT22;32066;49.474;11.106;2023-07-02T14:22:13;23.80;57.60
46356;DHT22;32066;49.474;11.106;2023-07-02T14:24:42;23.90;58.40
46356;DHT22;32066;49.474;11.106;2023-07-02T14:27:10;24.20;57.80
46356;DHT22;32066;49.474;11.106;2023-07-02T14:29:39;24.20;58.40
46356;DHT22;32066;49.474;11.106;2023-07-02T14:32:08;24.40;57.30
46356;DHT22;32066;49.474;11.106;2023-07-02T14:34:39;24.40;57.70
46356;DHT22;32066;49.474;11.106;2023-07-02T14:37:08;24.60;56.90
46356;DHT22;32066;49.474;11.106;2023-07-02T14:39:36;24.70;56.70
46356;DHT22;32066;49.474;11.106;2023-07-02T14:42:05;24.60;55.90
46356;DHT22;32066;49.474;11.106;2023-07-02T14:44:34;24.20;57.00
46356;DHT22;32066;49.474;11.106;2023-07-02T14:47:03;24.40;56.30
46356;DHT22;32066;49.474;11.106;2023-07-02T14:49:32;24.50;56.10
46356;DHT22;32066;49.474;11.106;2023-07-02T14:52:04;24.30;55.90
46356;DHT22;32066;49.474;11.106;2023-07-02T14:54:34;24.40;55.30
46356;DHT22;32066;49.474;11.106;2023-07-02T14:57:03;24.40;55.30
46356;DHT22;32066;49.474;11.106;2023-07-02T14:59:32;24.20;55.70
46356;DHT22;32066;49.474;11.106;2023-07-02T15:02:00;24.10;56.20
46356;DHT22;32066;49.474;11.106;2023-07-02T15:04:29;24.00;56.40
46356;DHT22;32066;49.474;11.106;2023-07-02T15:06:58;24.00;57.00
46356;DHT22;32066;49.474;11.106;2023-07-02T15:09:29;23.90;56.70
46356;DHT22;32066;49.474;11.106;2023-07-02T15:11:57;24.00;57.00
46356;DHT22;32066;49.474;11.106;2023-07-02T15:14:26;24.10;56.70
46356;DHT22;32066;49.474;11.106;2023-07-02T15:16:55;24.20;56.80
46356;DHT22;32066;49.474;11.106;2023-07-02T15:19:23;24.20;56.80
46356;DHT22;32066;49.474;11.106;2023-07-02T15:21:52;24.20;56.90
46356;DHT22;32066;49.474;11.106;2023-07-02T15:24:21;24.30;57.10
46356;DHT22;32066;49.474;11.106;2023-07-02T15:26:52;24.50;56.90
46356;DHT22;32066;49.474;11.106;2023-07-02T15:29:20;24.60;55.80
46356;DHT22;32066;49.474;11.106;2023-07-02T15:31:49;24.50;55.40